Time;durP1;ratioP1;P1;durP2;ratioP2;P2;SDS_P1;SDS_P2;PMS_P1;PMS_P2;Temp;Humidity;BMP_temperature;BMP_pressure;BME280_temperature;BME280_humidity;BME280_pressure;Samples;Min_cycle;Max_cycle;Signal;HPM_P1;HPM_P2
2021/12/04 00:01:11;;;;;;;7.25;1.92;;;22.60;46.20;;;;;;5114403;28;20047;-70
2021/12/04 00:03:44;;;;;;;4.50;2.40;;;22.50;46.10;;;;;;5112881;28;20486;-71
2021/12/04 00:06:23;;;;;;;4.13;1.90;;;22.60;46.30;;;;;;5114579;28;20050;-71
2021/12/04 00:09:02;;;;;;;6.13;1.85;;;22.50;46.10;;;;;;5108450;28;20046;-71
2021/12/04 00:11:37;;;;;;;4.65;1.67;;;22.50;46.10;;;;;;5108061;28;20051;-71
2021/12/04 00:14:09;;;;;;;3.15;1.88;;;22.50;46.10;;;;;;5106212;28;20422;-69
2021/12/04 00:16:42;;;;;;;2.78;1.80;;;22.50;46.20;;;;;;5111512;28;20055;-71
2021/12/04 00:19:14;;;;;;;6.63;1.60;;;22.50;46.10;;;;;;5105244;28;20511;-71
2021/12/04 00:21:47;;;;;;;7.00;1.85;;;22.50;46.10;;;;;;5114100;28;20042;-72
2021/12/04 00:24:20;;;;;;;6.47;2.13;;;22.50;46.00;;;;;;5110457;28;20058;-73
2021/12/04 00:26:53;;;;;;;3.05;1.70;;;22.50;46.00;;;;;;5116182;28;20043;-69
2021/12/04 00:29:26;;;;;;;5.45;1.85;;;22.50;46.00;;;;;;5112818;28;20043;-71
2021/12/04 00:32:03;;;;;;;9.03;2.37;;;22.50;45.80;;;;;;5116241;28;20317;-71
2021/12/04 00:34:40;;;;;;;5.10;1.90;;;22.40;45.70;;;;;;5118002;28;20058;-72
2021/12/04 00:37:36;;;;;;;7.53;2.00;;;22.40;45.70;;;;;;5113189;28;20049;-73
2021/12/04 00:43:24;;;;;;;4.53;1.77;;;22.40;45.70;;;;;;5116323;28;20054;-73
2021/12/04 00:49:08;;;;;;;3.00;1.38;;;22.40;45.80;;;;;;5115925;28;20048;-72
2021/12/04 00:51:50;;;;;;;2.08;1.25;;;22.40;45.60;;;;;;5117074;28;20043;-72
2021/12/04 00:54:25;;;;;;;2.42;1.45;;;22.40;45.50;;;;;;5104596;28;20521;-72
2021/12/04 00:56:57;;;;;;;2.35;1.55;;;22.30;45.50;;;;;;5113611;28;20062;-71
2021/12/04 00:59:30;;;;;;;4.35;1.70;;;22.30;45.40;;;;;;5116356;28;20054;-73
2021/12/04 01:02:02;;;;;;;2.47;1.65;;;22.30;45.50;;;;;;5108783;28;20081;-73
2021/12/04 01:04:35;;;;;;;3.92;2.20;;;22.30;45.50;;;;;;5115691;28;20062;-72
2021/12/04 01:07:08;;;;;;;3.08;1.52;;;22.30;45.40;;;;;;5111912;28;20039;-71
2021/12/04 01:09:42;;;;;;;2.13;1.48;;;22.30;45.40;;;;;;5105661;28;20046;-73
2021/12/04 01:12:16;;;;;;;4.97;1.55;;;22.30;45.40;;;;;;5115562;28;20301;-71
2021/12/04 01:14:48;;;;;;;3.20;1.60;;;22.30;45.40;;;;;;5112860;28;20603;-71
2021/12/04 01:17:21;;;;;;;2.67;1.33;;;22.30;45.50;;;;;;5117980;28;20058;-73
2021/12/04 01:19:53;;;;;;;6.50;1.40;;;22.30;45.40;;;;;;5119278;28;20050;-72
2021/12/04 01:22:26;;;;;;;3.33;1.50;;;22.30;46.20;;;;;;5118104;28;20053;-71
2021/12/04 01:25:00;;;;;;;5.07;1.98;;;22.30;45.40;;;;;;5111151;28;20070;-72
2021/12/04 01:27:32;;;;;;;3.20;1.65;;;22.30;45.40;;;;;;5116588;28;20039;-70
2021/12/04 01:30:07;;;;;;;4.13;1.60;;;22.30;45.40;;;;;;5114729;28;20065;-71
2021/12/04 01:32:40;;;;;;;5.13;1.77;;;22.30;45.40;;;;;;5118910;28;20039;-70
2021/12/04 01:35:12;;;;;;;4.10;1.55;;;22.30;45.60;;;;;;5120666;28;20043;-71
2021/12/04 01:37:45;;;;;;;2.90;1.38;;;22.30;45.70;;;;;;5113439;28;20706;-71
2021/12/04 01:40:18;;;;;;;2.67;1.50;;;22.30;45.60;;;;;;5111924;28;20442;-72
2021/12/04 01:42:50;;;;;;;3.88;1.42;;;22.30;45.60;;;;;;5104173;28;20055;-70
2021/12/04 01:45:22;;;;;;;2.45;1.30;;;22.30;45.50;;;;;;5109425;28;20678;-72
2021/12/04 01:48:02;;;;;;;2.55;1.77;;;22.30;45.40;;;;;;5100361;28;20043;-71
2021/12/04 01:50:35;;;;;;;1.45;1.13;;;22.30;45.50;;;;;;5101310;28;20054;-71
2021/12/04 01:53:07;;;;;;;3.80;1.67;;;22.30;45.50;;;;;;5111485;28;20410;-71
2021/12/04 01:55:40;;;;;;;4.65;1.30;;;22.30;45.50;;;;;;5127634;28;20059;-71
2021/12/04 01:58:13;;;;;;;1.35;1.00;;;22.30;45.50;;;;;;5108524;28;20553;-71
2021/12/04 02:00:46;;;;;;;2.72;1.35;;;22.20;45.50;;;;;;5109020;28;20061;-69
2021/12/04 02:03:20;;;;;;;3.42;1.27;;;22.30;45.60;;;;;;5104295;28;20046;-71
2021/12/04 02:05:53;;;;;;;1.90;1.30;;;22.30;45.60;;;;;;5110082;28;21036;-72
2021/12/04 02:08:25;;;;;;;2.13;1.23;;;22.20;45.50;;;;;;5107693;28;20039;-70
2021/12/04 02:10:59;;;;;;;;;;;22.20;45.40;;;;;;5106121;28;20058;-71
2021/12/04 02:13:31;;;;;;;4.05;1.25;;;22.10;45.20;;;;;;5106766;28;19937;-72
2021/12/04 02:16:15;;;;;;;2.42;1.23;;;22.20;45.30;;;;;;5108365;28;20411;-72
2021/12/04 02:18:48;;;;;;;5.57;1.20;;;22.20;45.30;;;;;;5106731;28;21383;-73
2021/12/04 02:21:20;;;;;;;1.63;1.10;;;22.20;45.40;;;;;;5108298;28;20047;-71
2021/12/04 02:23:53;;;;;;;2.15;1.17;;;22.20;45.40;;;;;;5108624;28;20482;-71
2021/12/04 02:26:25;;;;;;;5.18;1.10;;;22.20;45.40;;;;;;5107245;28;20043;-71
2021/12/04 02:28:58;;;;;;;1.63;1.00;;;22.20;45.40;;;;;;5113357;28;20043;-71
2021/12/04 02:31:30;;;;;;;1.80;1.40;;;22.20;45.40;;;;;;5110636;28;20127;-73
2021/12/04 02:34:03;;;;;;;2.38;1.30;;;22.20;45.40;;;;;;5115237;28;20065;-72
2021/12/04 02:36:36;;;;;;;2.25;1.05;;;22.20;45.40;;;;;;5110156;28;20046;-71
2021/12/04 02:39:09;;;;;;;3.67;1.70;;;22.20;45.50;;;;;;5111910;28;20052;-74
2021/12/04 02:41:42;;;;;;;3.53;1.30;;;22.20;45.30;;;;;;5105624;28;20076;-72
2021/12/04 02:44:14;;;;;;;2.58;1.38;;;22.20;45.30;;;;;;5112174;28;20542;-71
2021/12/04 02:46:46;;;;;;;2.78;1.10;;;22.10;45.30;;;;;;5112463;28;20051;-71
2021/12/04 02:49:21;;;;;;;8.20;1.42;;;22.10;45.30;;;;;;5114242;28;20051;-71
2021/12/04 02:51:53;;;;;;;3.63;1.30;;;22.20;45.30;;;;;;5102854;28;21025;-74
2021/12/04 02:54:25;;;;;;;1.83;1.13;;;22.20;45.30;;;;;;5102791;28;20035;-73
2021/12/04 02:56:58;;;;;;;3.35;1.20;;;22.10;45.40;;;;;;5108472;28;20491;-71
2021/12/04 02:59:32;;;;;;;2.72;1.25;;;22.10;45.40;;;;;;5108432;28;20047;-73
2021/12/04 03:02:07;;;;;;;2.25;1.00;;;22.10;45.30;;;;;;5107539;28;20591;-70
2021/12/04 03:04:39;;;;;;;1.88;1.10;;;22.10;45.30;;;;;;5112896;28;20055;-71
2021/12/04 03:07:13;;;;;;;2.05;1.38;;;22.10;45.30;;;;;;5117732;28;20430;-72
2021/12/04 03:09:45;;;;;;;3.70;1.10;;;22.10;45.30;;;;;;5126087;28;20498;-72
2021/12/04 03:12:24;;;;;;;2.00;1.00;;;22.10;45.30;;;;;;5101897;28;20038;-72
2021/12/04 03:14:56;;;;;;;4.75;1.10;;;22.10;45.20;;;;;;5104524;28;20042;-73
2021/12/04 03:17:29;;;;;;;2.90;0.95;;;22.10;45.30;;;;;;5108288;28;20054;-72
2021/12/04 03:20:03;;;;;;;1.73;1.20;;;22.10;45.30;;;;;;5105499;28;20042;-73
2021/12/04 03:22:35;;;;;;;3.20;1.00;;;22.10;45.30;;;;;;5104424;28;20523;-71
2021/12/04 03:25:09;;;;;;;1.65;0.90;;;22.10;45.30;;;;;;5100565;28;20465;-73
2021/12/04 03:27:45;;;;;;;1.42;1.02;;;22.10;45.40;;;;;;5105676;28;20050;-70
2021/12/04 03:41:14;;;;;;;1.02;0.77;;;22.10;45.40;;;;;;5103280;28;20502;-71
2021/12/04 03:43:47;;;;;;;2.08;1.20;;;22.00;45.30;;;;;;5099382;28;20078;-74
2021/12/04 03:46:19;;;;;;;2.63;1.30;;;22.00;45.40;;;;;;5110030;28;20450;-73
2021/12/04 03:48:53;;;;;;;4.43;1.23;;;22.10;45.40;;;;;;5108624;28;20741;-72
2021/12/04 03:51:25;;;;;;;1.27;1.10;;;22.10;45.40;;;;;;5102658;28;20058;-72
2021/12/04 03:53:58;;;;;;;1.30;1.00;;;22.00;45.30;;;;;;5097662;28;20055;-71
2021/12/04 03:56:32;;;;;;;1.67;0.90;;;22.00;45.30;;;;;;5097869;28;20491;-71
2021/12/04 03:59:04;;;;;;;;;;;22.00;45.30;;;;;;5101720;28;20078;-73
2021/12/04 04:01:36;;;;;;;1.30;1.08;;;22.00;45.20;;;;;;5113029;28;19930;-71
2021/12/04 04:04:09;;;;;;;1.20;0.88;;;22.00;45.40;;;;;;5094302;28;20050;-71
2021/12/04 04:06:41;;;;;;;2.63;0.90;;;22.00;45.40;;;;;;5099810;28;20074;-72
2021/12/04 04:09:14;;;;;;;1.60;1.20;;;22.00;45.30;;;;;;5106289;28;20051;-72
2021/12/04 04:11:47;;;;;;;1.58;0.90;;;22.00;45.40;;;;;;5108899;28;20410;-71
2021/12/04 04:14:19;;;;;;;1.45;1.08;;;22.00;45.30;;;;;;5103488;28;20507;-70
2021/12/04 04:16:55;;;;;;;1.45;1.00;;;22.00;45.40;;;;;;5076137;28;20295;-72
2021/12/04 04:19:27;;;;;;;1.48;1.02;;;22.00;45.40;;;;;;5085537;28;20062;-72
2021/12/04 04:22:00;;;;;;;2.40;0.98;;;22.00;45.40;;;;;;5077873;28;20062;-71
2021/12/04 04:24:33;;;;;;;1.98;1.15;;;22.00;45.40;;;;;;5098647;28;20058;-70
2021/12/04 04:27:06;;;;;;;1.83;1.20;;;22.00;45.40;;;;;;5097354;28;20046;-70
2021/12/04 04:29:38;;;;;;;1.93;1.20;;;22.00;45.40;;;;;;5098192;28;20062;-71
2021/12/04 04:32:11;;;;;;;1.27;0.82;;;21.90;45.30;;;;;;5102599;28;20173;-70
2021/12/04 04:34:49;;;;;;;4.00;1.27;;;21.90;45.30;;;;;;5098463;28;20051;-69
2021/12/04 04:37:35;;;;;;;1.63;0.80;;;21.90;45.30;;;;;;5101117;28;20043;-70
2021/12/04 05:11:08;;;;;;;1.80;0.93;;;21.90;45.40;;;;;;5092539;28;20050;-70
2021/12/04 05:13:41;;;;;;;2.63;0.98;;;21.90;45.40;;;;;;5078193;28;20051;-74
2021/12/04 05:16:16;;;;;;;1.98;0.80;;;21.90;45.50;;;;;;5078617;28;20046;-71
2021/12/04 05:18:58;;;;;;;2.67;1.20;;;21.90;45.40;;;;;;5081528;28;20058;-71
2021/12/04 05:21:31;;;;;;;1.98;0.90;;;21.90;45.40;;;;;;5084680;28;20047;-72
2021/12/04 05:24:03;;;;;;;2.70;1.00;;;21.90;45.50;;;;;;5086353;28;20047;-72
2021/12/04 05:26:35;;;;;;;1.02;0.80;;;21.90;45.40;;;;;;5081591;28;21102;-70
2021/12/04 05:29:08;;;;;;;3.80;1.00;;;21.90;45.50;;;;;;5093963;28;20066;-73
2021/12/04 05:31:40;;;;;;;2.38;0.90;;;21.90;45.50;;;;;;5088760;28;20054;-71
2021/12/04 05:34:13;;;;;;;2.17;0.98;;;21.90;45.50;;;;;;5088074;28;20043;-72
2021/12/04 05:36:45;;;;;;;3.10;1.20;;;21.90;45.60;;;;;;5084057;28;20047;-70
2021/12/04 05:39:18;;;;;;;39.08;2.38;;;21.90;45.60;;;;;;5090229;28;20058;-71
2021/12/04 05:41:51;;;;;;;3.50;0.93;;;21.90;45.50;;;;;;5080461;28;20063;-71
2021/12/04 05:44:26;;;;;;;2.15;1.10;;;21.90;45.50;;;;;;5077574;28;20051;-71
2021/12/04 05:47:03;;;;;;;2.03;0.80;;;22.00;45.60;;;;;;5080736;28;20050;-70
2021/12/04 05:50:00;;;;;;;2.05;0.85;;;22.00;45.60;;;;;;5087873;28;20051;-70
2021/12/04 05:52:49;;;;;;;1.90;0.82;;;22.00;45.50;;;;;;5084918;28;20790;-71
2021/12/04 05:55:22;;;;;;;2.88;1.05;;;22.00;45.40;;;;;;5095397;28;20046;-72
2021/12/04 05:57:54;;;;;;;7.00;0.85;;;22.00;45.40;;;;;;5078056;28;20606;-71
2021/12/04 06:00:27;;;;;;;1.00;0.80;;;22.10;45.40;;;;;;5085881;28;20054;-71
2021/12/04 06:03:03;;;;;;;2.72;0.98;;;22.10;45.50;;;;;;5086284;28;20054;-71
2021/12/04 06:05:36;;;;;;;2.28;1.20;;;22.10;45.50;;;;;;5092338;28;20392;-70
2021/12/04 06:08:09;;;;;;;3.22;1.27;;;22.10;45.40;;;;;;5082595;28;20043;-70
2021/12/04 06:10:41;;;;;;;5.03;0.90;;;22.10;45.50;;;;;;5080592;28;20739;-71
2021/12/04 06:13:14;;;;;;;2.63;1.17;;;22.10;45.50;;;;;;5082648;28;20046;-73
2021/12/04 06:15:47;;;;;;;1.63;0.82;;;22.10;45.40;;;;;;5076978;28;21944;-71
2021/12/04 06:18:21;;;;;;;2.67;1.30;;;22.10;45.50;;;;;;5076536;28;20051;-70
2021/12/04 06:23:45;;;;;;;4.22;1.05;;;22.10;45.50;;;;;;5077167;28;20043;-73
2021/12/04 06:26:18;;;;;;;5.13;1.23;;;22.10;45.60;;;;;;5083636;28;20415;-72
2021/12/04 06:28:50;;;;;;;3.70;0.90;;;22.10;45.60;;;;;;5077075;28;20050;-74
2021/12/04 06:31:24;;;;;;;3.40;0.98;;;22.10;45.70;;;;;;5079777;28;22456;-75
2021/12/04 06:33:57;;;;;;;4.65;1.10;;;22.20;45.80;;;;;;5081887;28;20039;-70
2021/12/04 06:36:30;;;;;;;2.72;0.88;;;22.20;45.80;;;;;;5083665;28;20047;-72
2021/12/04 06:39:03;;;;;;;7.95;1.55;;;22.20;45.90;;;;;;5083317;28;20058;-73
2021/12/04 06:41:36;;;;;;;2.63;1.20;;;22.20;46.00;;;;;;5077136;28;20055;-72
2021/12/04 06:44:08;;;;;;;5.43;1.03;;;22.20;46.10;;;;;;5077889;28;20058;-69
2021/12/04 06:46:41;;;;;;;4.63;1.70;;;22.20;46.10;;;;;;5088707;28;20992;-67
2021/12/04 06:49:19;;;;;;;5.38;1.27;;;22.20;46.20;;;;;;5084089;28;20054;-72
2021/12/04 06:51:55;;;;;;;4.35;1.42;;;22.20;46.20;;;;;;5089378;28;20049;-70
2021/12/04 06:54:33;;;;;;;3.15;1.23;;;22.20;46.30;;;;;;5083600;28;22597;-71
2021/12/04 06:57:09;;;;;;;4.25;1.40;;;22.30;46.50;;;;;;5095422;28;20518;-72
2021/12/04 06:59:42;;;;;;;3.03;1.20;;;22.30;46.50;;;;;;5083104;28;20626;-73
2021/12/04 07:02:15;;;;;;;2.55;1.33;;;22.30;46.50;;;;;;5091463;28;20054;-73
2021/12/04 07:04:48;;;;;;;1.67;0.80;;;22.30;46.80;;;;;;5084603;28;20057;-73
2021/12/04 07:07:20;;;;;;;3.35;1.30;;;22.30;46.70;;;;;;5101608;28;20051;-73
2021/12/04 07:09:53;;;;;;;3.95;1.50;;;22.30;46.70;;;;;;5090046;28;20054;-69
2021/12/04 07:12:25;;;;;;;6.88;1.00;;;22.30;46.70;;;;;;5078523;28;20043;-73
2021/12/04 07:14:58;;;;;;;3.25;1.23;;;22.30;46.80;;;;;;5087637;28;20430;-73
2021/12/04 07:17:33;;;;;;;4.07;1.20;;;22.30;46.90;;;;;;5076184;28;20143;-71
2021/12/04 07:20:07;;;;;;;3.58;1.38;;;22.30;47.00;;;;;;5083390;28;20078;-71
2021/12/04 07:22:40;;;;;;;5.20;0.90;;;22.30;47.00;;;;;;5077706;28;20054;-73
2021/12/04 07:25:12;;;;;;;9.23;1.23;;;22.40;47.10;;;;;;5100808;28;20043;-71
2021/12/04 07:27:46;;;;;;;8.90;1.75;;;22.30;47.10;;;;;;5084549;28;20050;-71
2021/12/04 07:30:19;;;;;;;6.88;1.27;;;22.40;47.20;;;;;;5087619;28;20058;-70
2021/12/04 07:32:52;;;;;;;8.90;1.98;;;22.40;47.20;;;;;;5063885;28;20058;-70
2021/12/04 07:35:24;;;;;;;10.40;1.33;;;22.40;47.20;;;;;;5075854;28;20055;-72
2021/12/04 07:37:57;;;;;;;6.97;1.75;;;22.40;47.20;;;;;;5074976;28;22252;-70
2021/12/04 07:40:30;;;;;;;4.03;1.08;;;22.40;47.20;;;;;;5077788;28;20490;-71
2021/12/04 07:43:02;;;;;;;4.87;1.13;;;22.40;47.30;;;;;;5077278;28;20051;-73
2021/12/04 07:45:35;;;;;;;2.95;1.00;;;22.40;48.00;;;;;;5078572;28;20486;-71
2021/12/04 07:48:08;;;;;;;5.23;1.47;;;22.40;47.30;;;;;;5085800;28;21075;-71
2021/12/04 07:50:40;;;;;;;10.38;1.33;;;22.40;47.30;;;;;;5081000;28;20294;-72
2021/12/04 07:53:13;;;;;;;4.70;1.15;;;22.40;47.30;;;;;;5082569;28;20050;-72
2021/12/04 07:55:45;;;;;;;2.77;1.07;;;22.40;47.40;;;;;;5075762;28;20043;-72
2021/12/04 07:58:18;;;;;;;2.92;0.95;;;22.40;47.60;;;;;;5082461;28;20355;-70
2021/12/04 08:00:50;;;;;;;8.95;1.40;;;22.40;47.40;;;;;;5070159;28;20055;-70
2021/12/04 08:03:23;;;;;;;4.60;1.17;;;22.40;47.50;;;;;;5075218;28;20050;-73
2021/12/04 08:05:56;;;;;;;7.78;1.20;;;22.40;47.60;;;;;;5073071;28;20046;-73
2021/12/04 08:08:28;;;;;;;7.50;1.45;;;22.40;47.50;;;;;;5072325;28;21503;-71
2021/12/04 08:11:04;;;;;;;8.30;1.25;;;22.40;47.50;;;;;;5086245;28;20051;-72
2021/12/04 08:13:36;;;;;;;7.90;1.15;;;22.40;47.50;;;;;;5074596;28;21008;-73
2021/12/04 08:16:08;;;;;;;3.50;1.20;;;22.40;47.60;;;;;;5073214;28;21316;-72
2021/12/04 08:18:41;;;;;;;2.78;1.05;;;22.50;47.70;;;;;;5075468;28;22279;-69
2021/12/04 08:21:13;;;;;;;4.72;1.17;;;22.40;47.60;;;;;;5077273;28;20059;-71
2021/12/04 08:23:46;;;;;;;3.88;1.10;;;22.40;47.60;;;;;;5066701;28;22082;-73
2021/12/04 08:26:19;;;;;;;5.93;1.05;;;22.40;47.70;;;;;;5075078;28;20046;-71
2021/12/04 08:28:52;;;;;;;2.50;1.08;;;22.40;47.70;;;;;;5062175;28;20125;-70
2021/12/04 08:31:24;;;;;;;3.70;1.03;;;22.40;47.70;;;;;;5071652;28;20042;-71
2021/12/04 08:33:57;;;;;;;6.17;1.80;;;22.40;48.40;;;;;;5066214;28;20696;-74
2021/12/04 08:36:29;;;;;;;7.82;1.27;;;22.40;47.80;;;;;;5090543;28;20070;-75
2021/12/04 08:39:05;;;;;;;3.13;1.17;;;22.50;48.20;;;;;;5086978;28;20317;-70
2021/12/04 08:41:37;;;;;;;5.35;1.20;;;22.50;48.30;;;;;;5071181;28;20054;-69
2021/12/04 08:44:11;;;;;;;8.45;1.50;;;22.50;48.30;;;;;;5083659;28;20049;-71
2021/12/04 08:46:43;;;;;;;;;;;22.50;48.30;;;;;;5084566;28;20487;-73
2021/12/04 08:49:16;;;;;;;5.95;1.38;;;22.50;48.40;;;;;;5095279;28;19930;-71
2021/12/04 08:51:48;;;;;;;6.40;1.17;;;22.50;48.20;;;;;;5095148;28;20050;-71
2021/12/04 08:54:21;;;;;;;4.93;1.33;;;22.50;48.20;;;;;;5084465;28;20672;-74
2021/12/04 08:56:53;;;;;;;7.32;1.67;;;22.50;48.10;;;;;;5107431;28;20058;-73
2021/12/04 08:59:27;;;;;;;10.82;1.77;;;22.50;48.00;;;;;;5105466;28;20684;-70
2021/12/04 09:02:00;;;;;;;4.75;1.25;;;22.50;48.00;;;;;;5110422;28;20043;-72
2021/12/04 09:04:35;;;;;;;6.03;1.50;;;22.50;47.90;;;;;;5108470;28;20050;-71
2021/12/04 09:07:09;;;;;;;6.63;1.20;;;22.50;47.90;;;;;;5099388;28;20331;-70
2021/12/04 09:09:41;;;;;;;11.15;1.80;;;22.50;47.90;;;;;;5090321;28;20049;-70
2021/12/04 09:12:27;;;;;;;6.80;1.30;;;22.50;48.50;;;;;;5090086;28;20058;-73
2021/12/04 09:15:02;;;;;;;13.07;1.55;;;22.50;48.40;;;;;;5092622;28;20047;-71
2021/12/04 09:17:35;;;;;;;4.93;1.60;;;22.50;47.80;;;;;;5099159;28;20057;-76
2021/12/04 09:20:08;;;;;;;9.05;1.63;;;22.50;47.80;;;;;;5097685;28;21220;-70
2021/12/04 09:22:41;;;;;;;;;;;22.50;47.80;;;;;;5100097;28;20042;-71
2021/12/04 09:25:17;;;;;;;5.45;1.27;;;22.40;47.70;;;;;;5097115;28;19961;-72
2021/12/04 10:02:02;;;;;;;20.98;3.08;;;22.40;48.30;;;;;;5114421;28;20050;-71
2021/12/04 10:19:14;;;;;;;4.93;1.75;;;22.50;49.20;;;;;;5104414;28;20050;-72
2021/12/04 10:33:15;;;;;;;12.63;1.60;;;22.50;48.40;;;;;;5073078;28;21338;-71
2021/12/04 10:35:49;;;;;;;4.10;1.92;;;22.50;48.30;;;;;;5076904;28;20047;-72
2021/12/04 10:38:25;;;;;;;4.50;1.70;;;22.50;48.30;;;;;;5091368;28;20046;-72
2021/12/04 10:40:58;;;;;;;7.38;2.55;;;22.50;48.20;;;;;;5096687;28;20430;-71
2021/12/04 10:43:31;;;;;;;12.55;2.10;;;22.50;48.30;;;;;;5072973;28;20050;-70
2021/12/04 10:46:15;;;;;;;4.22;1.52;;;22.50;48.20;;;;;;5092416;28;20062;-73
2021/12/04 10:49:02;;;;;;;6.55;1.85;;;22.50;48.20;;;;;;5087399;28;20046;-70
2021/12/04 10:51:51;;;;;;;6.40;1.85;;;22.60;48.20;;;;;;5092248;28;20057;-71
2021/12/04 10:54:25;;;;;;;4.68;1.75;;;22.50;48.10;;;;;;5104513;28;20055;-72
2021/12/04 11:00:45;;;;;;;8.23;1.30;;;22.50;48.00;;;;;;5098444;28;26037;-70
2021/12/04 11:24:25;;;;;;;5.65;1.70;;;22.60;48.10;;;;;;5104046;28;20055;-71
2021/12/04 11:35:47;;;;;;;8.48;1.73;;;22.60;48.30;;;;;;5086981;28;20046;-72
2021/12/04 11:38:23;;;;;;;6.00;1.80;;;22.60;48.60;;;;;;5100333;28;20038;-72
2021/12/04 11:41:22;;;;;;;3.42;1.45;;;22.50;49.00;;;;;;5099557;28;20150;-70
2021/12/04 11:44:11;;;;;;;5.93;1.58;;;22.60;49.20;;;;;;5097599;28;20043;-71
2021/12/04 11:46:45;;;;;;;5.97;1.45;;;22.50;49.30;;;;;;5087751;28;20051;-69
2021/12/04 11:49:26;;;;;;;8.82;1.95;;;22.50;49.10;;;;;;5081098;28;21190;-72
2021/12/04 11:52:07;;;;;;;9.20;1.60;;;22.50;48.90;;;;;;5084907;28;20046;-70
2021/12/04 11:55:00;;;;;;;4.07;1.80;;;22.60;48.90;;;;;;5071760;28;20046;-72
2021/12/04 11:57:35;;;;;;;8.57;1.70;;;22.60;48.90;;;;;;5061369;28;20043;-72
2021/12/04 12:00:21;;;;;;;4.22;1.67;;;22.60;48.80;;;;;;5093227;28;20618;-71
2021/12/04 12:03:05;;;;;;;6.82;1.67;;;22.60;48.80;;;;;;5095675;28;20051;-70
2021/12/04 12:05:52;;;;;;;6.47;1.38;;;22.60;48.80;;;;;;5086348;28;20050;-71
2021/12/04 12:08:37;;;;;;;7.65;1.60;;;22.60;48.70;;;;;;5086915;28;20059;-70
2021/12/04 12:11:12;;;;;;;9.82;2.03;;;22.60;48.70;;;;;;5088894;28;20076;-70
2021/12/04 12:13:49;;;;;;;5.30;1.77;;;22.60;48.80;;;;;;5099524;28;20047;-70
2021/12/04 12:16:30;;;;;;;5.10;1.40;;;22.60;49.40;;;;;;5110402;28;20525;-70
2021/12/04 12:19:11;;;;;;;5.00;1.38;;;22.60;49.60;;;;;;5104214;28;20039;-72
2021/12/04 12:22:02;;;;;;;11.05;2.15;;;22.60;49.40;;;;;;5104606;28;20155;-71
2021/12/04 12:27:53;;;;;;;6.93;2.00;;;22.60;49.50;;;;;;5098498;28;20495;-72
2021/12/04 12:36:13;;;;;;;10.07;1.48;;;22.60;50.00;;;;;;5083010;28;20055;-71
2021/12/04 12:38:59;;;;;;;10.52;1.80;;;22.60;50.00;;;;;;5072038;28;20156;-72
2021/12/04 12:41:40;;;;;;;11.15;1.42;;;22.60;49.60;;;;;;5081660;28;20050;-72
2021/12/04 12:44:18;;;;;;;8.00;1.75;;;22.60;49.60;;;;;;5087636;28;20921;-70
2021/12/04 12:46:58;;;;;;;10.02;1.63;;;22.70;49.70;;;;;;5103233;28;20058;-73
2021/12/04 12:49:41;;;;;;;7.97;1.60;;;22.70;49.70;;;;;;5109649;28;20045;-71
2021/12/04 12:52:26;;;;;;;16.45;1.70;;;22.70;49.60;;;;;;5113307;28;20061;-72
2021/12/04 12:55:06;;;;;;;8.63;1.50;;;22.70;50.20;;;;;;5111652;28;20050;-72
2021/12/04 12:57:42;;;;;;;6.50;1.40;;;22.80;49.60;;;;;;5097633;28;20084;-72
2021/12/04 13:12:09;;;;;;;10.63;1.42;;;23.10;49.50;;;;;;5111335;28;20038;-73
2021/12/04 13:14:41;;;;;;;4.07;1.30;;;23.20;49.60;;;;;;5116373;28;20387;-72
2021/12/04 13:17:20;;;;;;;4.95;1.50;;;23.20;49.60;;;;;;5109668;28;20050;-70
2021/12/04 13:19:55;;;;;;;6.22;1.50;;;23.20;49.50;;;;;;5115716;28;20069;-72
2021/12/04 13:22:30;;;;;;;5.15;1.48;;;23.30;49.60;;;;;;5104791;28;20061;-72
2021/12/04 13:25:10;;;;;;;4.70;1.48;;;23.30;49.10;;;;;;5069195;28;20046;-70
2021/12/04 13:30:16;;;;;;;3.90;1.00;;;23.40;49.00;;;;;;5104170;28;20046;-73
2021/12/04 13:32:49;;;;;;;4.78;1.70;;;23.40;49.20;;;;;;5124107;28;21003;-71
2021/12/04 13:35:23;;;;;;;7.07;1.55;;;23.40;49.40;;;;;;5103344;28;20054;-74
2021/12/04 13:38:00;;;;;;;7.13;1.38;;;23.40;49.20;;;;;;5110253;28;20077;-74
2021/12/04 13:40:33;;;;;;;4.10;1.52;;;23.40;49.30;;;;;;5108707;28;20529;-73
2021/12/04 13:43:13;;;;;;;4.15;2.05;;;23.50;49.40;;;;;;5109111;28;20057;-74
2021/12/04 13:45:54;;;;;;;6.35;1.38;;;23.50;49.40;;;;;;5124244;28;20109;-73
2021/12/04 13:48:28;;;;;;;5.03;1.50;;;23.50;49.30;;;;;;5113057;28;20859;-73
2021/12/04 13:51:02;;;;;;;3.78;1.75;;;23.60;49.20;;;;;;5095346;28;20675;-74
2021/12/04 13:53:38;;;;;;;6.37;1.50;;;23.60;49.10;;;;;;5104420;28;20482;-75
2021/12/04 13:56:17;;;;;;;5.25;1.27;;;23.60;49.10;;;;;;5123200;28;20082;-74
2021/12/04 13:58:54;;;;;;;4.40;1.50;;;23.60;49.20;;;;;;5110399;28;20063;-75
2021/12/04 14:01:29;;;;;;;6.13;1.48;;;23.60;49.20;;;;;;5105888;28;20054;-74
2021/12/04 14:04:03;;;;;;;3.40;1.30;;;23.60;49.40;;;;;;5112432;28;20054;-73
2021/12/04 14:06:35;;;;;;;3.35;1.02;;;23.70;49.10;;;;;;5106393;28;20050;-72
2021/12/04 14:09:08;;;;;;;3.83;1.27;;;23.60;48.90;;;;;;5109476;28;20054;-71
2021/12/04 14:11:42;;;;;;;4.53;1.30;;;23.60;49.00;;;;;;5118451;28;20517;-71
2021/12/04 14:14:20;;;;;;;2.15;1.20;;;23.70;49.20;;;;;;5096804;28;20047;-71
2021/12/04 14:16:54;;;;;;;3.35;1.00;;;23.70;49.10;;;;;;5083087;28;20535;-71
2021/12/04 14:19:29;;;;;;;7.40;1.20;;;23.70;49.10;;;;;;5093134;28;20785;-71
2021/12/04 14:22:12;;;;;;;3.80;1.48;;;23.70;49.00;;;;;;5091317;28;20051;-73
2021/12/04 14:24:55;;;;;;;5.05;1.45;;;23.70;49.10;;;;;;5108602;28;20135;-69
2021/12/04 14:27:35;;;;;;;12.07;1.83;;;23.70;48.90;;;;;;5090634;28;20046;-71
2021/12/04 14:30:14;;;;;;;11.18;2.00;;;23.70;48.90;;;;;;5113129;28;20507;-72
2021/12/04 14:32:50;;;;;;;8.82;2.08;;;23.70;48.90;;;;;;5083923;28;20050;-72
2021/12/04 14:35:28;;;;;;;11.48;2.17;;;23.70;48.80;;;;;;5127163;28;20486;-71
2021/12/04 14:38:03;;;;;;;12.70;7.35;;;23.70;48.70;;;;;;5099476;28;20527;-70
2021/12/04 14:40:42;;;;;;;18.00;8.93;;;23.60;48.30;;;;;;5092762;28;20055;-73
2021/12/04 14:43:18;;;;;;;23.17;10.48;;;23.60;47.90;;;;;;5093917;28;20062;-73
2021/12/04 14:45:56;;;;;;;15.05;9.15;;;23.60;47.80;;;;;;5131028;28;20058;-74
2021/12/04 14:48:37;;;;;;;11.52;8.68;;;23.50;47.80;;;;;;5119518;28;20529;-75
2021/12/04 14:51:14;;;;;;;13.02;8.30;;;23.50;47.80;;;;;;5115205;28;20055;-73
2021/12/04 14:53:56;;;;;;;12.95;7.97;;;23.50;47.80;;;;;;5105680;28;20051;-73
2021/12/04 14:56:30;;;;;;;12.50;7.55;;;23.40;47.80;;;;;;5115671;28;20059;-76
2021/12/04 14:59:14;;;;;;;12.38;6.80;;;23.40;47.30;;;;;;5110297;28;20051;-75
2021/12/04 15:01:47;;;;;;;11.00;6.93;;;23.40;47.80;;;;;;5113340;28;20047;-74
2021/12/04 15:04:20;;;;;;;8.27;6.73;;;23.40;47.90;;;;;;5120834;28;20566;-73
2021/12/04 15:06:52;;;;;;;9.00;6.63;;;23.30;47.90;;;;;;5127115;28;20301;-74
2021/12/04 15:09:27;;;;;;;8.93;6.07;;;23.30;48.00;;;;;;5120070;28;21386;-73
2021/12/04 15:12:02;;;;;;;7.35;5.90;;;23.30;48.00;;;;;;5119285;28;20042;-75
2021/12/04 15:14:34;;;;;;;7.03;5.75;;;23.30;48.00;;;;;;5116167;28;20168;-73
2021/12/04 15:17:13;;;;;;;14.33;6.23;;;23.30;48.00;;;;;;5120809;28;20062;-74
2021/12/04 15:19:47;;;;;;;7.78;5.72;;;23.20;48.00;;;;;;5115247;28;20127;-75
2021/12/04 15:22:37;;;;;;;12.85;5.80;;;23.20;48.10;;;;;;5119768;28;20055;-74
2021/12/04 15:25:13;;;;;;;11.00;5.90;;;23.20;48.00;;;;;;5113581;28;20186;-75
2021/12/04 15:27:46;;;;;;;8.77;5.30;;;23.10;48.70;;;;;;5114867;28;20062;-73
2021/12/04 15:30:19;;;;;;;8.40;5.22;;;23.10;48.10;;;;;;5113136;28;20065;-73
2021/12/04 15:32:56;;;;;;;6.72;4.97;;;23.10;48.10;;;;;;5146913;28;20047;-74
2021/12/04 15:35:37;;;;;;;6.57;5.00;;;23.10;48.10;;;;;;5112264;28;20550;-72
2021/12/04 15:38:18;;;;;;;10.90;4.85;;;23.10;48.10;;;;;;5112713;28;20586;-72
2021/12/04 15:46:32;;;;;;;4.93;3.78;;;23.00;48.90;;;;;;5120322;28;20056;-75
2021/12/04 15:55:04;;;;;;;5.35;3.50;;;22.90;48.30;;;;;;5119952;28;20054;-73
2021/12/04 15:57:38;;;;;;;5.03;3.65;;;22.90;48.30;;;;;;5122861;28;20043;-74
2021/12/04 16:00:16;;;;;;;5.45;3.95;;;22.90;48.30;;;;;;5126666;28;20483;-73
2021/12/04 16:02:54;;;;;;;5.15;3.80;;;22.90;48.30;;;;;;5120051;28;20074;-74
2021/12/04 16:05:31;;;;;;;6.00;3.65;;;22.90;48.40;;;;;;5148735;28;20081;-73
2021/12/04 16:08:12;;;;;;;4.95;3.50;;;22.80;48.30;;;;;;5134699;28;20066;-74
2021/12/04 16:10:47;;;;;;;8.00;3.00;;;22.80;48.30;;;;;;5122739;28;20625;-74
2021/12/04 16:13:26;;;;;;;3.55;2.83;;;22.80;48.40;;;;;;5104762;28;20166;-75
2021/12/04 16:16:10;;;;;;;5.75;3.15;;;22.80;48.40;;;;;;5119332;28;20507;-73
2021/12/04 16:18:44;;;;;;;4.03;2.95;;;22.80;48.40;;;;;;5115126;28;20557;-75
2021/12/04 16:21:18;;;;;;;4.40;3.05;;;22.80;48.40;;;;;;5109747;28;20039;-73
2021/12/04 16:23:52;;;;;;;5.28;3.35;;;22.80;48.40;;;;;;5116846;28;20491;-76
2021/12/04 16:26:28;;;;;;;5.20;2.85;;;22.80;48.50;;;;;;5120532;28;20525;-73
2021/12/04 16:29:07;;;;;;;3.90;3.10;;;22.70;48.40;;;;;;5119818;28;20050;-73